createdAt,value
2022-09-28T00:02:40.987Z,9.20
2022-09-28T00:05:44.836Z,9.13
2022-09-28T00:08:50.105Z,9.07
2022-09-28T00:11:53.750Z,8.99
2022-09-28T00:14:56.194Z,8.88
2022-09-28T00:17:58.743Z,8.79
2022-09-28T00:21:05.752Z,8.72
2022-09-28T00:24:20.510Z,8.65
2022-09-28T00:27:24.618Z,8.59
2022-09-28T00:30:27.084Z,8.55
2022-09-28T00:33:29.549Z,8.52
2022-09-28T00:36:34.938Z,8.53
2022-09-28T00:39:38.383Z,8.43
2022-09-28T00:42:42.865Z,8.36
2022-09-28T00:45:46.146Z,8.36
2022-09-28T00:48:54.018Z,8.34
2022-09-28T00:51:57.838Z,8.30
2022-09-28T00:55:02.885Z,8.22
2022-09-28T00:58:08.894Z,8.28
2022-09-28T01:01:12.008Z,8.28
2022-09-28T01:04:14.829Z,8.37
2022-09-28T01:07:19.761Z,8.44
2022-09-28T01:10:22.587Z,8.37
2022-09-28T01:13:26.010Z,8.49
2022-09-28T01:16:39.371Z,8.53
2022-09-28T01:20:07.423Z,8.60
2022-09-28T01:23:52.674Z,8.61
2022-09-28T01:27:06.747Z,8.62
2022-09-28T01:30:12.681Z,8.63
2022-09-28T01:33:21.829Z,8.62
2022-09-28T05:58:52.396Z,12.13
2022-09-28T06:01:55.088Z,12.28
2022-09-28T06:05:07.589Z,12.90
2022-09-28T06:08:12.789Z,13.28
2022-09-28T06:11:15.432Z,13.20
2022-09-28T06:14:20.885Z,13.37
2022-09-28T06:17:23.540Z,13.51
2022-09-28T06:20:29.802Z,13.76
2022-09-28T06:23:32.318Z,13.91
2022-09-28T06:26:34.786Z,14.31
2022-09-28T06:29:38.703Z,14.48
2022-09-28T06:32:42.126Z,14.51
2022-09-28T06:35:44.595Z,14.86
2022-09-28T06:38:47.416Z,14.96
2022-09-28T06:41:49.849Z,14.76
2022-09-28T06:44:53.627Z,15.21
2022-09-28T06:47:58.306Z,15.00
2022-09-28T06:51:01.296Z,15.16
2022-09-28T06:54:03.745Z,15.08
2022-09-28T07:05:37.982Z,12.59
2022-09-28T07:08:40.726Z,13.07
2022-09-28T07:11:44.698Z,13.08
2022-09-28T07:14:48.277Z,13.28
2022-09-28T07:18:00.305Z,13.58
2022-09-28T07:21:08.779Z,13.73
2022-09-28T07:24:14.218Z,13.63
2022-09-28T07:27:19.985Z,14.06
2022-09-28T07:30:22.531Z,13.95
2022-09-28T07:33:31.554Z,14.11
2022-09-28T07:36:35.693Z,14.19
2022-09-28T07:39:58.397Z,14.14
2022-09-28T07:43:05.494Z,14.22
2022-09-28T07:46:11.224Z,14.16
2022-09-28T07:49:15.626Z,13.95
2022-09-28T07:52:19.392Z,14.00
2022-09-28T07:55:21.857Z,13.92
2022-09-28T07:58:24.321Z,13.44
2022-09-28T08:01:26.957Z,13.55
2022-09-28T08:04:30.344Z,13.79
2022-09-28T08:07:34.538Z,14.10
2022-09-28T08:10:37.559Z,14.22
2022-09-28T08:13:40.193Z,14.42
2022-09-28T08:16:47.518Z,14.55
2022-09-28T08:20:09.324Z,14.45
2022-09-28T08:23:13.244Z,14.50
2022-09-28T08:26:16.952Z,14.68
2022-09-28T08:29:19.526Z,14.92
2022-09-28T08:32:21.989Z,14.90
2022-09-28T08:35:26.249Z,14.88
2022-09-28T08:38:32.717Z,14.67
2022-09-28T08:41:44.251Z,14.39
2022-09-28T08:44:51.799Z,14.24
2022-09-28T08:48:15.186Z,14.44
2022-09-28T08:51:21.149Z,14.41
2022-09-28T08:54:36.332Z,15.90
2022-09-28T08:57:45.138Z,17.34
2022-09-28T09:00:50.138Z,17.94
2022-09-28T09:03:52.875Z,17.24
2022-09-28T09:07:17.788Z,17.43
2022-09-28T09:10:38.269Z,17.15
2022-09-28T09:14:10.412Z,16.23
2022-09-28T09:17:25.613Z,15.60
2022-09-28T09:20:39.809Z,15.75
2022-09-28T09:23:55.003Z,15.24
2022-09-28T09:27:06.872Z,15.00
2022-09-28T09:30:11.461Z,14.70
2022-09-28T09:33:38.643Z,14.45
2022-09-28T09:36:57.692Z,14.58
2022-09-28T09:40:16.971Z,14.74
2022-09-28T09:43:48.426Z,14.95
2022-09-28T09:46:55.965Z,15.13
2022-09-28T09:50:06.860Z,15.35
2022-09-28T09:53:22.790Z,15.63
2022-09-28T09:56:34.589Z,15.88
2022-09-28T09:59:41.717Z,16.52
2022-09-28T10:02:46.917Z,16.56
2022-09-28T10:05:56.304Z,16.42
2022-09-28T10:09:04.362Z,16.38
2022-09-28T10:12:09.851Z,16.47
2022-09-28T10:15:17.474Z,16.27
2022-09-28T10:18:21.639Z,16.06
2022-09-28T10:21:24.752Z,15.75
2022-09-28T10:24:32.076Z,15.81
2022-09-28T10:27:36.229Z,15.54
2022-09-28T10:30:42.066Z,15.53
2022-09-28T10:33:44.640Z,15.51
2022-09-28T10:36:51.541Z,15.48
2022-09-28T10:39:56.339Z,15.25
2022-09-28T10:43:03.659Z,15.13
2022-09-28T10:46:10.002Z,15.25
2022-09-28T10:49:17.575Z,15.16
2022-09-28T10:52:39.781Z,15.23
2022-09-28T10:55:42.240Z,14.99
2022-09-28T10:58:44.939Z,15.13
2022-09-28T11:01:48.973Z,15.14
2022-09-28T11:04:54.131Z,15.25
2022-09-28T11:07:59.826Z,15.41
2022-09-28T11:11:08.654Z,16.05
2022-09-28T11:14:26.541Z,17.31
2022-09-28T11:17:32.792Z,17.74
2022-09-28T11:20:36.020Z,16.89
2022-09-28T11:23:38.500Z,16.48
2022-09-28T11:26:43.047Z,16.41
2022-09-28T11:29:52.733Z,16.33
2022-09-28T11:33:04.418Z,16.01
2022-09-28T11:36:20.256Z,16.05
2022-09-28T11:39:34.308Z,15.70
2022-09-28T11:42:53.558Z,15.15
2022-09-28T11:46:03.056Z,14.65
2022-09-28T11:49:31.022Z,14.40
2022-09-28T11:52:40.587Z,14.25
2022-09-28T11:55:47.661Z,14.10
2022-09-28T11:58:54.140Z,14.35
2022-09-28T12:01:58.791Z,14.43
2022-09-28T12:05:18.401Z,14.46
2022-09-28T12:08:27.653Z,14.47
2022-09-28T12:11:36.678Z,14.24
2022-09-28T12:14:41.158Z,13.68
2022-09-28T12:17:48.148Z,13.45
2022-09-28T12:21:04.980Z,13.49
2022-09-28T12:24:16.684Z,13.36
2022-09-28T12:27:27.949Z,13.37
2022-09-28T12:30:35.420Z,13.49
2022-09-28T12:33:38.946Z,13.54
2022-09-28T12:36:57.100Z,13.61
2022-09-28T12:40:20.727Z,13.55
2022-09-28T12:43:54.953Z,13.23
2022-09-28T12:47:14.706Z,12.91
2022-09-28T12:50:45.609Z,12.37
2022-09-28T12:54:06.573Z,12.27
2022-09-28T12:57:26.948Z,12.49
2022-09-28T13:00:37.094Z,12.71
2022-09-28T13:03:58.864Z,13.10
2022-09-28T13:07:06.114Z,13.43
2022-09-28T13:10:19.297Z,13.80
2022-09-28T13:13:32.899Z,14.07
2022-09-28T13:16:46.013Z,14.56
2022-09-28T13:19:54.848Z,14.67
2022-09-28T13:23:12.533Z,14.86
2022-09-28T13:26:25.330Z,15.00
2022-09-28T13:29:28.897Z,15.00
2022-09-28T13:32:36.912Z,15.33
2022-09-28T13:35:43.586Z,15.53
2022-09-28T13:38:52.506Z,15.90
2022-09-28T13:41:56.316Z,15.72
2022-09-28T13:45:33.480Z,15.50
2022-09-28T13:48:48.546Z,15.46
2022-09-28T13:52:05.215Z,14.96
2022-09-28T13:55:20.742Z,14.69
2022-09-28T13:58:29.454Z,14.59
2022-09-28T14:01:39.796Z,14.52
2022-09-28T14:04:58.857Z,14.43
2022-09-28T14:08:20.836Z,14.25
2022-09-28T14:11:50.360Z,14.08
2022-09-28T14:14:54.889Z,14.06
2022-09-28T14:18:19.149Z,13.88
2022-09-28T14:21:52.530Z,13.80
2022-09-28T14:25:08.537Z,13.70
2022-09-28T14:28:29.246Z,13.52
2022-09-28T14:31:33.078Z,13.38
2022-09-28T14:34:39.200Z,13.27
2022-09-28T14:38:01.093Z,13.29
2022-09-28T14:41:13.801Z,13.48
2022-09-28T14:44:17.162Z,13.40
2022-09-28T14:47:34.803Z,13.31
2022-09-28T14:50:37.320Z,13.31
2022-09-28T14:53:40.094Z,13.30
2022-09-28T14:56:45.528Z,13.53
2022-09-28T14:59:48.362Z,13.23
2022-09-28T15:02:55.058Z,13.09
2022-09-28T15:05:58.601Z,13.20
2022-09-28T15:09:01.058Z,13.41
2022-09-28T15:12:05.924Z,13.26
2022-09-28T15:15:25.076Z,13.20
2022-09-28T15:18:43.894Z,13.16
2022-09-28T15:21:48.651Z,13.07
2022-09-28T15:25:01.387Z,13.05
2022-09-28T15:28:19.345Z,13.11
2022-09-28T15:31:24.297Z,13.01
2022-09-28T15:34:50.843Z,13.00
2022-09-28T15:37:55.439Z,12.84
2022-09-28T15:40:58.389Z,12.90
2022-09-28T15:44:20.245Z,12.77
2022-09-28T15:47:27.693Z,12.54
2022-09-28T15:50:33.478Z,12.50
2022-09-28T15:53:36.022Z,12.43
2022-09-28T15:56:52.379Z,12.52
2022-09-28T15:59:56.922Z,12.58
2022-09-28T16:03:05.539Z,12.60
2022-09-28T16:06:11.609Z,12.62
2022-09-28T16:09:36.099Z,12.50
2022-09-28T16:12:46.033Z,12.35
2022-09-28T16:15:57.962Z,12.28
2022-09-28T16:19:03.187Z,12.43
2022-09-28T16:22:09.385Z,12.14
2022-09-28T16:25:18.990Z,12.20
2022-09-28T16:28:48.832Z,12.25
2022-09-28T16:31:53.087Z,12.10
2022-09-28T16:35:16.806Z,12.03
2022-09-28T16:38:20.936Z,11.93
2022-09-28T16:41:26.921Z,11.83
2022-09-28T16:44:31.814Z,11.60
2022-09-28T16:47:34.838Z,11.54
2022-09-28T16:50:37.308Z,11.52
2022-09-28T16:53:58.613Z,11.48
2022-09-28T16:57:01.727Z,11.37
2022-09-28T17:00:05.215Z,11.23
2022-09-28T17:03:13.981Z,11.15
2022-09-28T17:06:18.506Z,10.95
2022-09-28T17:09:23.299Z,10.89
2022-09-28T17:12:28.230Z,10.79
2022-09-28T17:15:30.828Z,10.89
2022-09-28T17:18:33.306Z,10.94
2022-09-28T17:21:35.789Z,10.87
2022-09-28T17:24:39.916Z,10.85
2022-09-28T17:27:46.262Z,10.88
2022-09-28T17:30:49.299Z,10.85
2022-09-28T17:33:52.215Z,10.92
2022-09-28T17:36:55.929Z,10.85
2022-09-28T17:39:59.715Z,10.96
2022-09-28T17:43:04.087Z,10.95
2022-09-28T17:46:16.823Z,10.93
2022-09-28T17:49:19.576Z,10.95
2022-09-28T17:52:22.037Z,10.99
2022-09-28T17:55:28.659Z,11.06
2022-09-28T17:58:31.513Z,11.09
2022-09-28T18:01:35.185Z,11.09
2022-09-28T18:04:51.939Z,10.88
2022-09-28T18:07:55.200Z,10.89
2022-09-28T18:11:01.560Z,11.02
2022-09-28T18:14:07.834Z,10.87
2022-09-28T18:17:13.194Z,10.84
2022-09-28T18:20:16.239Z,10.89
2022-09-28T18:23:19.250Z,10.85
2022-09-28T18:26:23.333Z,10.91
2022-09-28T18:29:28.935Z,10.73
2022-09-28T18:32:36.813Z,10.84
2022-09-28T18:35:39.884Z,10.76
2022-09-28T18:38:42.623Z,10.78
2022-09-28T18:41:46.550Z,10.80
2022-09-28T18:44:49.349Z,10.83
2022-09-28T18:47:51.933Z,10.84
2022-09-28T18:50:54.507Z,10.71
2022-09-28T18:53:57.221Z,10.75
2022-09-28T18:57:01.197Z,10.74
2022-09-28T19:00:06.825Z,10.77
2022-09-28T19:03:14.351Z,10.82
2022-09-28T19:06:17.320Z,10.72
2022-09-28T19:09:22.072Z,10.75
2022-09-28T19:12:25.995Z,10.63
2022-09-28T19:15:28.518Z,10.65
2022-09-28T19:18:31.991Z,10.70
2022-09-28T19:21:34.515Z,10.70
2022-09-28T19:24:37.004Z,10.70
2022-09-28T19:27:40.920Z,10.70
2022-09-28T19:30:43.857Z,10.81
2022-09-28T19:33:47.156Z,10.74
2022-09-28T19:36:49.617Z,10.68
2022-09-28T19:39:52.061Z,10.59
2022-09-28T19:42:55.865Z,10.57
2022-09-28T19:46:04.713Z,10.47
2022-09-28T19:49:09.716Z,10.21
2022-09-28T19:52:16.958Z,10.13
2022-09-28T19:55:21.335Z,10.08
2022-09-28T19:58:29.322Z,10.07
2022-09-28T20:01:32.548Z,9.97
2022-09-28T20:04:35.354Z,9.87
2022-09-28T20:07:39.781Z,9.85
2022-09-28T20:10:51.080Z,9.79
2022-09-28T20:13:55.330Z,9.66
2022-09-28T20:17:03.809Z,9.63
2022-09-28T20:20:06.676Z,9.50
2022-09-28T20:23:09.172Z,9.48
2022-09-28T20:26:12.374Z,9.46
2022-09-28T20:29:16.217Z,9.45
2022-09-28T20:32:18.831Z,9.43
2022-09-28T20:35:32.243Z,9.46
2022-09-28T20:38:38.300Z,9.42
2022-09-28T20:41:41.187Z,9.45
2022-09-28T20:44:45.600Z,9.45
2022-09-28T20:47:48.164Z,9.41
2022-09-28T20:50:58.660Z,9.50
2022-09-28T20:54:01.299Z,9.49
2022-09-28T20:57:17.246Z,9.43
2022-09-28T21:00:21.171Z,9.48
2022-09-28T21:03:24.788Z,9.57
2022-09-28T21:06:28.952Z,9.60
2022-09-28T21:09:32.433Z,9.65
2022-09-28T21:12:34.942Z,9.72
2022-09-28T21:15:38.794Z,9.79
2022-09-28T21:18:41.592Z,9.76
2022-09-28T21:21:44.049Z,9.77
2022-09-28T21:24:46.497Z,9.91
2022-09-28T21:27:49.278Z,9.80
2022-09-28T21:30:53.201Z,9.76
2022-09-28T21:33:55.757Z,9.55
2022-09-28T21:36:58.212Z,9.60
2022-09-28T21:40:02.480Z,9.56
2022-09-28T21:43:04.961Z,9.55
2022-09-28T21:46:08.826Z,9.52
2022-09-28T21:49:12.666Z,9.59
2022-09-28T21:52:15.119Z,9.55
2022-09-28T21:55:17.846Z,9.61
2022-09-28T21:58:23.436Z,9.54
2022-09-28T22:01:27.368Z,9.35
2022-09-28T22:04:29.827Z,9.23
2022-09-28T22:07:32.305Z,9.20
2022-09-28T22:10:34.813Z,9.01
2022-09-28T22:13:42.258Z,8.94
2022-09-28T22:16:46.287Z,8.88
2022-09-28T22:19:48.737Z,8.76
2022-09-28T22:22:51.351Z,8.67
2022-09-28T22:25:59.359Z,8.67
2022-09-28T22:29:03.584Z,8.53
2022-09-28T22:32:07.650Z,8.44
2022-09-28T22:35:10.663Z,8.35
2022-09-28T22:38:13.321Z,8.37
2022-09-28T22:41:18.132Z,8.45
2022-09-28T22:44:21.033Z,8.36
2022-09-28T22:47:24.928Z,8.37
2022-09-28T22:50:27.376Z,8.32
2022-09-28T22:53:30.075Z,8.28
2022-09-28T22:56:32.585Z,8.25
2022-09-28T22:59:35.032Z,8.21
2022-09-28T23:02:38.862Z,8.20
2022-09-28T23:05:41.444Z,8.13
2022-09-28T23:08:44.686Z,8.11
2022-09-28T23:11:47.160Z,8.05
2022-09-28T23:14:49.612Z,7.97
2022-09-28T23:17:53.685Z,7.80
2022-09-28T23:20:56.653Z,7.85
2022-09-28T23:24:01.605Z,7.84
2022-09-28T23:27:04.209Z,7.85
2022-09-28T23:30:07.706Z,7.77
2022-09-28T23:33:13.061Z,7.66
2022-09-28T23:36:16.251Z,7.57
2022-09-28T23:39:18.824Z,7.57
